Anselmo, Nebraska
Current Conditions -  °F | °C
As of 5:53 AM on Saturday 25 Oct 2014 (Local Time) from KBBW Reporting Station
Clear Clear  
Wind Chill: 43°   Ceiling: Unl
Heat Index: 47°   Visibility: 10mi
Dew Point: 41°   Wind: 9mph
Humidity: 80%   Direction: 350°N
Pressure: 30.09"   Gusts: NA
Location:  41.62°N, 99.87°W
Report Text: KBBW 251053Z AUTO 35008KT 10SM CLR 08/05 A3009 RMK AO2 SLP178 T00830050
Loading
Personal Weather Stations






























Interactive Weather Map New forecast layout! Learn more

10-Day Weather Forecast

Advertisements
Track Severe Weather on mobile